Terminal Aerodrome Forecast
Issued by NWS Atlanta, GA

Home | Current Version | Previous Version | Text Only | Print | Product List | Glossary On
Versions: 1 2 3 4 5 6 7 8 9 10 11 12 13 14 15 16 17 18 19 20 21 22 23 24 25 26 27 28 29 30 31 32 33 34 35 36 37
000
FTUS42 KFFC 271121
TAFAHN
TAF
KAHN 271121Z 2712/2812 00000KT P6SM FEW025
     FM271300 31004KT P6SM SCT035
     FM271500 31004KT P6SM SCT250
     FM280300 06004KT P6SM BKN025
     FM280900 07006KT P6SM OVC015=

USA.gov is the U.S. government's official web portal to all federal, state and local government web resources and services.